createdAt,value
2018-06-07T00:01:05.693Z,9.00
2018-06-07T00:03:34.029Z,9.13
2018-06-07T00:06:02.368Z,8.80
2018-06-07T00:08:30.761Z,9.47
2018-06-07T00:10:59.417Z,8.53
2018-06-07T00:13:27.753Z,8.20
2018-06-07T00:15:56.694Z,9.67
2018-06-07T00:18:25.105Z,8.50
2018-06-07T00:20:53.581Z,8.83
2018-06-07T00:23:22.040Z,8.53
2018-06-07T00:25:50.360Z,7.50
2018-06-07T00:28:18.796Z,8.43
2018-06-07T00:30:46.900Z,8.43
2018-06-07T00:33:15.324Z,8.30
2018-06-07T00:35:48.331Z,7.37
2018-06-07T00:38:17.217Z,7.90
2018-06-07T00:40:45.620Z,7.57
2018-06-07T00:43:13.946Z,7.17
2018-06-07T00:45:42.340Z,7.97
2018-06-07T00:48:11.429Z,7.43
2018-06-07T00:50:39.848Z,7.17
2018-06-07T00:53:09.265Z,8.07
2018-06-07T00:55:37.650Z,7.37
2018-06-07T00:58:05.998Z,6.57
2018-06-07T01:00:34.956Z,7.07
2018-06-07T01:03:03.330Z,7.03
2018-06-07T01:05:32.212Z,6.70
2018-06-07T01:08:00.572Z,6.70
2018-06-07T01:10:29.221Z,6.33
2018-06-07T01:12:57.639Z,6.23
2018-06-07T01:15:26.096Z,8.03
2018-06-07T01:17:54.474Z,6.30
2018-06-07T01:20:22.912Z,6.97
2018-06-07T01:22:51.350Z,6.37
2018-06-07T01:25:19.789Z,8.57
2018-06-07T01:27:48.189Z,5.53
2018-06-07T01:30:30.529Z,8.03
2018-06-07T01:33:26.695Z,6.70
2018-06-07T01:35:56.684Z,6.53
2018-06-07T01:39:06.891Z,6.70
2018-06-07T01:41:35.289Z,7.00
2018-06-07T01:44:03.806Z,9.03
2018-06-07T01:46:32.467Z,7.83
2018-06-07T01:49:00.910Z,7.27
2018-06-07T01:51:29.085Z,8.63
2018-06-07T01:53:57.503Z,9.17
2018-06-07T01:56:25.876Z,9.17
2018-06-07T01:58:54.987Z,8.77
2018-06-07T02:01:23.467Z,8.23
2018-06-07T02:03:51.809Z,9.20
2018-06-07T02:06:20.586Z,8.13
2018-06-07T02:08:48.913Z,7.43
2018-06-07T02:11:17.291Z,8.13
2018-06-07T02:13:45.741Z,9.20
2018-06-07T02:16:14.110Z,11.97
2018-06-07T02:18:42.502Z,9.93
2018-06-07T02:21:10.861Z,10.13
2018-06-07T02:23:41.077Z,13.17
2018-06-07T02:26:09.441Z,12.20
2018-06-07T02:28:38.117Z,13.43
2018-06-07T02:31:06.575Z,15.13
2018-06-07T02:33:34.901Z,14.57
2018-06-07T02:36:03.900Z,17.37
2018-06-07T02:38:32.205Z,16.13
2018-06-07T02:41:00.617Z,15.27
2018-06-07T02:43:29.042Z,14.70
2018-06-07T02:45:57.420Z,13.73
2018-06-07T02:48:25.748Z,15.17
2018-06-07T02:50:54.229Z,16.23
2018-06-07T02:53:22.606Z,21.50
2018-06-07T02:55:51.024Z,20.73
2018-06-07T02:58:19.438Z,22.20
2018-06-07T03:00:47.787Z,18.73
2018-06-07T03:03:16.197Z,28.93
2018-06-07T03:05:44.566Z,31.07
2018-06-07T03:08:13.760Z,24.17
2018-06-07T03:10:42.148Z,33.07
2018-06-07T03:13:10.636Z,29.40
2018-06-07T03:15:39.012Z,30.77
2018-06-07T03:18:07.414Z,23.67
2018-06-07T03:20:35.777Z,30.20
2018-06-07T03:23:04.174Z,34.03
2018-06-07T03:25:32.499Z,30.10
2018-06-07T03:28:00.585Z,27.83
2018-06-07T03:30:28.985Z,32.60
2018-06-07T03:32:57.308Z,26.80
2018-06-07T03:35:26.200Z,35.00
2018-06-07T03:37:54.555Z,36.20
2018-06-07T03:40:22.935Z,34.30
2018-06-07T03:42:51.271Z,37.97
2018-06-07T03:45:19.661Z,24.00
2018-06-07T03:47:48.010Z,32.93
2018-06-07T03:50:16.402Z,24.23
2018-06-07T03:52:44.844Z,28.87
2018-06-07T03:55:13.272Z,31.30
2018-06-07T03:57:41.645Z,37.80
2018-06-07T04:00:10.041Z,25.37
2018-06-07T04:02:38.472Z,31.23
2018-06-07T04:05:06.932Z,32.90
2018-06-07T04:07:36.139Z,42.47
2018-06-07T04:10:04.681Z,47.63
2018-06-07T04:12:33.920Z,42.67
2018-06-07T04:15:03.806Z,37.07
2018-06-07T04:17:32.189Z,59.53
2018-06-07T04:20:01.252Z,48.23
2018-06-07T04:22:29.698Z,39.20
2018-06-07T04:24:58.092Z,41.23
2018-06-07T04:27:26.490Z,42.47
2018-06-07T04:29:54.839Z,39.17
2018-06-07T04:32:23.233Z,34.27
2018-06-07T04:34:52.452Z,54.97
2018-06-07T04:37:20.893Z,41.37
2018-06-07T04:39:49.320Z,53.90
2018-06-07T04:42:17.792Z,47.23
2018-06-07T04:44:46.129Z,45.87
2018-06-07T04:47:14.512Z,55.90
2018-06-07T04:49:42.946Z,51.33
2018-06-07T04:52:11.318Z,36.07
2018-06-07T04:54:39.702Z,54.20
2018-06-07T04:57:08.126Z,33.90
2018-06-07T04:59:36.547Z,34.23
2018-06-07T05:02:04.971Z,34.87
2018-06-07T05:04:33.346Z,37.10
2018-06-07T05:07:01.712Z,33.10
2018-06-07T05:09:30.120Z,29.57
2018-06-07T05:11:58.540Z,35.77
2018-06-07T05:14:26.968Z,33.53
2018-06-07T05:16:55.312Z,28.33
2018-06-07T05:19:23.752Z,32.07
2018-06-07T05:21:52.132Z,29.00
2018-06-07T05:24:20.547Z,45.23
2018-06-07T05:26:48.883Z,57.27
2018-06-07T05:29:17.342Z,39.33
2018-06-07T05:31:46.004Z,63.77
2018-06-07T05:34:15.232Z,47.10
2018-06-07T05:36:43.612Z,66.37
2018-06-07T05:39:12.236Z,41.67
2018-06-07T05:41:41.380Z,50.20
2018-06-07T05:44:09.822Z,65.97
2018-06-07T05:46:38.190Z,51.07
2018-06-07T05:49:06.644Z,58.70
2018-06-07T05:51:35.186Z,59.90
2018-06-07T05:54:03.624Z,75.70
2018-06-07T05:56:32.049Z,66.63
2018-06-07T05:59:00.398Z,55.97
2018-06-07T06:01:28.773Z,72.13
2018-06-07T06:03:58.045Z,72.43
2018-06-07T06:06:26.476Z,63.90
2018-06-07T06:08:54.845Z,68.20
2018-06-07T06:11:23.292Z,89.07
2018-06-07T06:13:51.567Z,85.67
2018-06-07T06:16:20.017Z,63.77
2018-06-07T06:18:48.428Z,78.13
2018-06-07T06:21:16.543Z,74.70
2018-06-07T06:23:44.928Z,55.50
2018-06-07T06:26:13.324Z,61.07
2018-06-07T06:28:41.675Z,99.43
2018-06-07T06:31:10.121Z,59.97
2018-06-07T06:33:38.526Z,68.83
2018-06-07T06:36:07.476Z,72.03
2018-06-07T06:38:39.159Z,59.40
2018-06-07T06:41:07.529Z,73.10
2018-06-07T06:43:36.021Z,64.40
2018-06-07T06:46:04.841Z,60.20
2018-06-07T06:48:33.184Z,87.03
2018-06-07T06:51:01.601Z,63.23
2018-06-07T06:53:29.978Z,73.03
2018-06-07T06:55:58.337Z,69.73
2018-06-07T06:58:26.751Z,61.40
2018-06-07T07:00:55.137Z,84.10
2018-06-07T07:03:23.928Z,60.30
2018-06-07T07:05:52.282Z,93.57
2018-06-07T07:08:20.638Z,112.30
2018-06-07T07:10:49.054Z,103.50
2018-06-07T07:13:17.448Z,93.30
2018-06-07T07:15:45.907Z,95.03
2018-06-07T07:18:14.248Z,74.10
2018-06-07T07:20:42.659Z,88.77
2018-06-07T07:23:11.066Z,55.53
2018-06-07T07:25:39.474Z,93.37
2018-06-07T07:28:07.850Z,111.83
2018-06-07T07:30:36.290Z,77.03
2018-06-07T07:33:04.678Z,86.70
2018-06-07T07:35:33.095Z,80.83
2018-06-07T07:38:01.166Z,110.47
2018-06-07T07:40:29.564Z,97.63
2018-06-07T07:42:57.917Z,102.37
2018-06-07T07:45:26.421Z,85.37
2018-06-07T07:47:54.778Z,84.57
2018-06-07T07:50:22.881Z,76.37
2018-06-07T07:52:51.463Z,60.67
2018-06-07T07:55:19.852Z,43.07
2018-06-07T07:57:48.225Z,45.40
2018-06-07T08:00:16.577Z,21.83
2018-06-07T08:02:44.709Z,32.43
2018-06-07T08:05:13.338Z,29.30
2018-06-07T08:07:41.819Z,28.07
2018-06-07T08:10:10.251Z,23.07
2018-06-07T08:12:38.698Z,42.27
2018-06-07T08:15:07.163Z,23.23
2018-06-07T08:17:35.581Z,39.03
2018-06-07T08:20:04.495Z,42.33
2018-06-07T08:22:32.965Z,35.97
2018-06-07T08:25:01.551Z,31.23
2018-06-07T08:27:29.957Z,32.27
2018-06-07T08:29:58.324Z,25.67
2018-06-07T08:32:26.719Z,36.27
2018-06-07T08:34:55.116Z,26.47
2018-06-07T08:37:23.525Z,27.40
2018-06-07T08:39:51.909Z,38.47
2018-06-07T08:42:20.299Z,33.23
2018-06-07T08:44:48.718Z,27.00
2018-06-07T08:47:17.037Z,45.57
2018-06-07T08:49:45.599Z,25.97
2018-06-07T08:52:13.996Z,36.63
2018-06-07T08:54:47.741Z,26.87
2018-06-07T08:57:16.641Z,34.20
2018-06-07T08:59:45.031Z,43.33
2018-06-07T09:02:13.142Z,33.33
2018-06-07T09:04:41.591Z,39.40
2018-06-07T09:07:10.089Z,30.50
2018-06-07T09:09:38.389Z,44.40
2018-06-07T09:12:06.761Z,38.93
2018-06-07T09:14:35.204Z,45.37
2018-06-07T09:17:03.663Z,41.03
2018-06-07T09:19:32.157Z,43.23
2018-06-07T09:22:00.568Z,41.43
2018-06-07T09:24:28.989Z,39.70
2018-06-07T09:26:57.385Z,56.00
2018-06-07T09:29:25.784Z,53.33
2018-06-07T09:31:54.244Z,42.57
2018-06-07T09:34:22.690Z,47.90
2018-06-07T09:36:51.146Z,50.80
2018-06-07T09:39:19.559Z,34.80
2018-06-07T09:41:48.097Z,43.83
2018-06-07T09:44:16.466Z,44.97
2018-06-07T09:46:44.901Z,34.87
2018-06-07T09:49:13.268Z,33.80
2018-06-07T09:51:41.664Z,47.03
2018-06-07T09:54:10.306Z,52.23
2018-06-07T09:56:38.816Z,39.77
2018-06-07T09:59:07.210Z,27.33
2018-06-07T10:01:35.591Z,30.17
2018-06-07T10:04:04.018Z,32.50
2018-06-07T10:06:32.408Z,44.83
2018-06-07T10:09:00.836Z,51.47
2018-06-07T10:11:29.228Z,44.83
2018-06-07T10:13:57.619Z,34.70
2018-06-07T10:16:25.741Z,32.93
2018-06-07T10:18:54.129Z,36.83
2018-06-07T10:21:22.489Z,45.87
2018-06-07T10:23:50.921Z,44.47
2018-06-07T10:26:18.989Z,26.27
2018-06-07T10:28:47.419Z,25.93
2018-06-07T10:31:15.801Z,29.83
2018-06-07T10:33:44.195Z,25.13
2018-06-07T10:36:12.572Z,38.33
2018-06-07T10:38:41.443Z,45.97
2018-06-07T10:41:09.892Z,34.93
2018-06-07T10:43:38.201Z,21.37
2018-06-07T10:46:06.601Z,37.47
2018-06-07T10:48:34.963Z,34.27
2018-06-07T10:51:03.371Z,35.17
2018-06-07T10:53:31.746Z,24.80
2018-06-07T10:56:00.168Z,19.47
2018-06-07T10:58:28.507Z,22.03
2018-06-07T11:00:57.147Z,24.63
2018-06-07T11:03:26.108Z,19.77
2018-06-07T11:05:54.493Z,14.90
2018-06-07T11:08:22.583Z,14.13
2018-06-07T11:10:51.025Z,13.65
2018-06-07T11:13:19.399Z,15.30
2018-06-07T11:15:47.824Z,14.73
2018-06-07T11:18:16.180Z,20.85
2018-06-07T11:20:44.565Z,13.95
2018-06-07T11:23:12.652Z,10.45
2018-06-07T11:25:41.045Z,10.48
2018-06-07T11:28:09.459Z,10.43
2018-06-07T11:30:37.884Z,11.63
2018-06-07T11:33:06.320Z,10.68
2018-06-07T11:35:34.688Z,10.43
2018-06-07T11:38:03.112Z,9.68
2018-06-07T11:40:31.137Z,11.35
2018-06-07T11:42:59.535Z,10.50
2018-06-07T11:45:27.914Z,10.18
2018-06-07T11:47:56.311Z,10.72
2018-06-07T11:50:24.723Z,11.05
2018-06-07T11:52:53.128Z,12.43
2018-06-07T11:55:21.508Z,11.05
2018-06-07T11:57:49.980Z,12.95
2018-06-07T12:00:19.517Z,11.63
2018-06-07T12:02:47.937Z,11.03
2018-06-07T12:05:16.757Z,10.48
2018-06-07T12:07:45.154Z,11.00
2018-06-07T12:10:13.804Z,9.68
2018-06-07T12:12:42.165Z,8.30
2018-06-07T12:15:10.762Z,7.65
2018-06-07T12:17:39.133Z,9.68
2018-06-07T12:20:08.571Z,7.85
2018-06-07T12:22:36.951Z,8.33
2018-06-07T12:25:05.951Z,8.75
2018-06-07T12:27:34.313Z,7.90
2018-06-07T12:30:02.743Z,9.23
2018-06-07T12:32:31.167Z,7.10
2018-06-07T12:35:00.482Z,7.67
2018-06-07T12:37:29.189Z,7.70
2018-06-07T12:39:57.716Z,7.58
2018-06-07T12:42:26.259Z,8.05
2018-06-07T12:44:54.666Z,8.70
2018-06-07T12:47:23.015Z,8.30
2018-06-07T12:49:51.401Z,9.88
2018-06-07T12:52:19.753Z,9.90
2018-06-07T12:54:48.166Z,8.90
2018-06-07T12:57:16.521Z,11.10
2018-06-07T12:59:45.009Z,10.90
2018-06-07T13:02:13.373Z,10.75
2018-06-07T13:04:41.703Z,10.23
2018-06-07T13:07:10.119Z,10.70
2018-06-07T13:09:38.987Z,10.43
2018-06-07T13:12:07.390Z,9.85
2018-06-07T13:14:35.778Z,12.13
2018-06-07T13:17:04.256Z,11.53
2018-06-07T13:19:32.633Z,10.48
2018-06-07T13:22:01.523Z,10.60
2018-06-07T13:24:29.913Z,9.90
2018-06-07T13:26:58.814Z,10.20
2018-06-07T13:29:27.160Z,11.75
2018-06-07T13:31:56.430Z,12.37
2018-06-07T13:34:25.150Z,11.35
2018-06-07T13:36:53.494Z,10.35
2018-06-07T13:39:21.872Z,11.20
2018-06-07T13:41:50.324Z,10.18
2018-06-07T13:44:18.717Z,13.90
2018-06-07T13:46:47.136Z,13.45
2018-06-07T13:49:15.552Z,15.78
2018-06-07T13:51:44.154Z,14.50
2018-06-07T13:54:12.515Z,15.68
2018-06-07T13:56:41.097Z,12.93
2018-06-07T13:59:10.022Z,14.55
2018-06-07T14:01:38.454Z,13.32
2018-06-07T14:04:06.895Z,13.18
2018-06-07T14:06:35.251Z,14.38
2018-06-07T14:09:06.566Z,12.85
2018-06-07T14:11:34.988Z,13.35
2018-06-07T14:14:03.821Z,12.28
2018-06-07T14:16:32.293Z,13.55
2018-06-07T14:19:00.733Z,12.40
2018-06-07T14:21:29.133Z,11.60
2018-06-07T14:23:57.542Z,11.55
2018-06-07T14:26:25.939Z,12.10
2018-06-07T14:28:54.333Z,11.45
2018-06-07T14:31:22.697Z,11.00
2018-06-07T14:33:51.123Z,11.60
2018-06-07T14:36:19.516Z,8.20
2018-06-07T14:38:47.945Z,8.53
2018-06-07T14:41:16.344Z,8.33
2018-06-07T14:43:44.717Z,9.13
2018-06-07T14:46:13.157Z,9.25
2018-06-07T14:48:41.523Z,8.38
2018-06-07T14:51:10.127Z,8.03
2018-06-07T14:53:38.639Z,9.58
2018-06-07T14:56:07.055Z,9.00
2018-06-07T14:58:35.410Z,8.58
2018-06-07T15:01:03.769Z,10.72
2018-06-07T15:03:32.215Z,7.92
2018-06-07T15:06:00.661Z,9.20
2018-06-07T15:08:29.053Z,8.38
2018-06-07T15:10:57.424Z,8.48
2018-06-07T15:13:25.829Z,8.78
2018-06-07T15:15:54.300Z,9.33
2018-06-07T15:18:22.698Z,9.50
2018-06-07T15:20:51.078Z,8.23
2018-06-07T15:23:19.475Z,8.53
2018-06-07T15:25:47.829Z,9.00
2018-06-07T15:28:16.222Z,8.95
2018-06-07T15:30:44.575Z,7.75
2018-06-07T15:33:12.964Z,9.25
2018-06-07T15:35:41.658Z,8.88
2018-06-07T15:38:10.091Z,8.75
2018-06-07T15:40:38.551Z,8.20
2018-06-07T15:43:06.993Z,8.53
2018-06-07T15:45:35.350Z,7.95
2018-06-07T15:48:03.761Z,8.70
2018-06-07T15:50:32.212Z,8.00
2018-06-07T15:53:00.568Z,7.92
2018-06-07T15:55:29.020Z,8.45
2018-06-07T15:57:57.405Z,8.25
2018-06-07T16:00:25.787Z,8.23
2018-06-07T16:02:54.166Z,8.40
2018-06-07T16:05:22.588Z,9.25
2018-06-07T16:07:50.952Z,8.78
2018-06-07T16:10:19.429Z,8.23
2018-06-07T16:12:47.785Z,9.20
2018-06-07T16:15:16.154Z,8.73
2018-06-07T16:17:44.718Z,10.25
2018-06-07T16:20:13.142Z,8.35
2018-06-07T16:22:41.519Z,12.23
2018-06-07T16:25:09.905Z,14.25
2018-06-07T16:27:38.257Z,13.65
2018-06-07T16:30:06.333Z,13.50
2018-06-07T16:32:34.703Z,13.03
2018-06-07T16:35:03.091Z,11.25
2018-06-07T16:37:31.477Z,10.95
2018-06-07T16:39:59.618Z,11.97
2018-06-07T16:42:27.968Z,12.23
2018-06-07T16:44:56.340Z,10.48
2018-06-07T16:47:24.769Z,12.03
2018-06-07T16:49:53.143Z,12.50
2018-06-07T16:52:21.549Z,14.25
2018-06-07T16:54:49.604Z,14.35
2018-06-07T16:57:17.953Z,14.03
2018-06-07T16:59:46.304Z,15.13
2018-06-07T17:02:14.784Z,14.70
2018-06-07T17:04:43.160Z,14.45
2018-06-07T17:07:11.510Z,15.23
2018-06-07T17:09:39.577Z,16.15
2018-06-07T17:12:07.666Z,14.43
2018-06-07T17:14:36.005Z,13.68
2018-06-07T17:17:04.512Z,13.35
2018-06-07T17:19:32.858Z,12.93
2018-06-07T17:22:01.368Z,13.22
2018-06-07T17:24:29.704Z,12.55
2018-06-07T17:26:58.126Z,12.45
2018-06-07T17:29:26.507Z,11.83
2018-06-07T17:31:55.654Z,13.43
2018-06-07T17:34:24.110Z,12.25
2018-06-07T17:36:52.528Z,12.33
2018-06-07T17:39:20.959Z,11.53
2018-06-07T17:41:49.307Z,11.22
2018-06-07T17:44:17.706Z,12.40
2018-06-07T17:46:46.097Z,11.68
2018-06-07T17:49:14.534Z,10.50
2018-06-07T17:51:42.894Z,10.05
2018-06-07T17:54:11.355Z,12.15
2018-06-07T17:56:39.776Z,10.38
2018-06-07T17:59:08.224Z,10.45
2018-06-07T18:01:36.715Z,10.90
2018-06-07T18:04:05.376Z,11.12
2018-06-07T18:06:33.741Z,10.93
2018-06-07T18:09:02.144Z,10.82
2018-06-07T18:11:30.573Z,11.80
2018-06-07T18:13:58.931Z,11.30
2018-06-07T18:16:27.393Z,11.00
2018-06-07T18:18:55.821Z,10.23
2018-06-07T18:21:24.201Z,11.40
2018-06-07T18:23:52.245Z,11.18
2018-06-07T18:26:20.675Z,11.38
2018-06-07T18:28:49.131Z,12.63
2018-06-07T18:31:17.560Z,13.18
2018-06-07T18:33:45.945Z,11.95
2018-06-07T18:36:14.350Z,12.03
2018-06-07T18:38:42.701Z,11.22
2018-06-07T18:41:11.134Z,10.80
2018-06-07T18:43:39.483Z,11.60
2018-06-07T18:46:07.971Z,12.20
2018-06-07T18:48:36.348Z,11.57
2018-06-07T18:51:04.760Z,10.53
2018-06-07T18:53:33.371Z,10.53
2018-06-07T18:56:02.102Z,9.90
2018-06-07T18:58:30.499Z,9.80
2018-06-07T19:00:58.569Z,10.08
2018-06-07T19:03:27.060Z,10.28
2018-06-07T19:05:56.138Z,10.13
2018-06-07T19:08:24.521Z,10.18
2018-06-07T19:10:52.828Z,10.35
2018-06-07T19:13:26.488Z,15.18
2018-06-07T19:15:55.016Z,13.43
2018-06-07T19:18:23.552Z,11.05
2018-06-07T19:20:56.502Z,11.53
2018-06-07T19:23:24.921Z,12.78
2018-06-07T19:25:58.913Z,12.07
2018-06-07T19:28:27.844Z,15.70
2018-06-07T19:30:56.274Z,12.85
2018-06-07T19:33:30.184Z,13.50
2018-06-07T19:35:58.742Z,12.80
2018-06-07T19:38:27.218Z,13.55
2018-06-07T19:41:01.008Z,13.58
2018-06-07T19:43:29.442Z,12.95
2018-06-07T19:45:58.527Z,12.20
2018-06-07T19:48:26.943Z,14.03
2018-06-07T19:50:55.358Z,13.68
2018-06-07T19:53:23.902Z,15.25
2018-06-07T19:55:52.951Z,16.60
2018-06-07T19:58:21.395Z,13.60
2018-06-07T20:00:50.386Z,14.30
2018-06-07T20:03:18.789Z,14.98
2018-06-07T20:05:47.150Z,14.83
2018-06-07T20:08:15.277Z,14.28
2018-06-07T20:10:45.412Z,14.98
2018-06-07T20:13:13.877Z,13.35
2018-06-07T20:15:42.301Z,13.87
2018-06-07T20:18:14.720Z,14.63
2018-06-07T20:20:43.315Z,16.00
2018-06-07T20:23:11.710Z,14.75
2018-06-07T20:25:40.754Z,13.87
2018-06-07T20:28:09.694Z,14.70
2018-06-07T20:30:38.385Z,14.73
2018-06-07T20:33:07.573Z,15.03
2018-06-07T20:35:39.545Z,14.83
2018-06-07T20:38:09.841Z,14.63
2018-06-07T20:40:38.345Z,15.70
2018-06-07T20:43:08.067Z,15.03
2018-06-07T20:45:36.295Z,15.17
2018-06-07T20:48:04.669Z,15.67
2018-06-07T20:50:33.700Z,15.23
2018-06-07T20:53:02.472Z,16.73
2018-06-07T20:55:30.932Z,14.93
2018-06-07T20:57:59.399Z,16.93
2018-06-07T21:00:27.922Z,15.83
2018-06-07T21:02:58.415Z,15.13
2018-06-07T21:05:26.837Z,15.93
2018-06-07T21:07:54.936Z,15.57
2018-06-07T21:10:23.056Z,15.77
2018-06-07T21:12:51.529Z,15.37
2018-06-07T21:15:19.926Z,14.93
2018-06-07T21:17:48.329Z,15.70
2018-06-07T21:20:16.746Z,15.83
2018-06-07T21:22:45.154Z,16.77
2018-06-07T21:25:13.818Z,17.20
2018-06-07T21:27:42.294Z,16.03
2018-06-07T21:30:11.544Z,15.83
2018-06-07T21:32:40.220Z,15.53
2018-06-07T21:35:08.785Z,15.77
2018-06-07T21:37:37.140Z,17.20
2018-06-07T21:40:05.583Z,15.47
2018-06-07T21:42:34.023Z,14.87
2018-06-07T21:45:02.444Z,15.03
2018-06-07T21:47:30.865Z,14.93
2018-06-07T21:49:59.856Z,15.67
2018-06-07T21:52:28.384Z,15.60
2018-06-07T21:54:56.706Z,15.67
2018-06-07T21:57:25.455Z,13.80
2018-06-07T21:59:53.906Z,14.50
2018-06-07T22:02:22.312Z,14.07
2018-06-07T22:04:50.724Z,13.60
2018-06-07T22:07:19.116Z,14.73
2018-06-07T22:09:47.444Z,13.53
2018-06-07T22:12:15.870Z,14.43
2018-06-07T22:14:44.543Z,14.77
2018-06-07T22:17:12.990Z,15.67
2018-06-07T22:19:41.635Z,14.97
2018-06-07T22:22:10.157Z,12.88
2018-06-07T22:24:39.447Z,51.87
2018-06-07T22:27:07.999Z,42.37
2018-06-07T22:29:36.487Z,86.73
2018-06-07T22:32:04.937Z,96.10
2018-06-07T22:34:33.265Z,65.37
2018-06-07T22:37:01.805Z,63.63
2018-06-07T22:39:30.171Z,135.57
2018-06-07T22:41:58.562Z,153.83
2018-06-07T22:44:27.745Z,69.93
2018-06-07T22:46:55.827Z,34.37
2018-06-07T22:49:24.153Z,51.43
2018-06-07T22:51:52.517Z,77.70
2018-06-07T22:54:20.894Z,50.47
2018-06-07T22:56:49.219Z,67.80
2018-06-07T22:59:17.647Z,90.03
2018-06-07T23:01:46.072Z,100.13
2018-06-07T23:04:14.465Z,70.47
2018-06-07T23:06:42.833Z,102.83
2018-06-07T23:09:11.235Z,85.73
2018-06-07T23:11:39.910Z,144.63
2018-06-07T23:14:08.324Z,113.80
2018-06-07T23:16:36.725Z,156.47
2018-06-07T23:19:05.157Z,175.47
2018-06-07T23:21:33.558Z,141.37
2018-06-07T23:24:01.985Z,175.70
2018-06-07T23:26:30.422Z,90.53
2018-06-07T23:28:58.832Z,88.17
2018-06-07T23:31:27.207Z,75.57
2018-06-07T23:33:55.666Z,125.53
2018-06-07T23:36:24.021Z,116.33
2018-06-07T23:38:52.414Z,164.60
2018-06-07T23:41:20.820Z,144.23
2018-06-07T23:43:49.187Z,166.87
2018-06-07T23:46:18.577Z,146.23
2018-06-07T23:48:46.967Z,162.93
2018-06-07T23:51:15.477Z,104.53
2018-06-07T23:53:43.873Z,143.63
2018-06-07T23:56:12.316Z,166.23
2018-06-07T23:58:40.662Z,231.00
